createdAt,value
2019-01-17T00:02:41.590Z,10.67
2019-01-17T00:05:30.595Z,11.30
2019-01-17T00:08:19.859Z,9.40
2019-01-17T00:13:40.195Z,9.03
2019-01-17T00:16:10.571Z,9.80
2019-01-17T00:18:47.077Z,9.73
2019-01-17T00:21:18.221Z,8.73
2019-01-17T00:24:07.599Z,10.60
2019-01-17T00:26:42.233Z,10.50
2019-01-17T00:29:12.670Z,9.77
2019-01-17T00:31:43.044Z,8.33
2019-01-17T00:34:25.474Z,9.60
2019-01-17T00:37:14.591Z,10.90
2019-01-17T00:40:22.100Z,10.37
2019-01-17T00:42:52.478Z,10.80
2019-01-17T00:45:22.903Z,9.70
2019-01-17T00:48:08.118Z,9.87
2019-01-17T00:50:38.573Z,10.77
2019-01-17T00:53:14.655Z,12.70
2019-01-17T00:55:47.530Z,11.33
2019-01-17T00:58:32.871Z,11.20
2019-01-17T01:01:09.402Z,12.70
2019-01-17T01:03:39.784Z,9.10
2019-01-17T01:06:25.375Z,9.07
2019-01-17T01:09:01.555Z,10.23
2019-01-17T01:11:40.818Z,6.63
2019-01-17T01:14:11.208Z,7.40
2019-01-17T01:16:58.220Z,8.00
2019-01-17T01:19:37.544Z,5.67
2019-01-17T01:22:23.158Z,7.20
2019-01-17T01:24:59.924Z,5.30
2019-01-17T01:27:30.303Z,4.07
2019-01-17T01:30:03.818Z,4.00
2019-01-17T01:33:01.002Z,3.70
2019-01-17T01:35:34.299Z,3.37
2019-01-17T01:38:07.375Z,3.90
2019-01-17T01:40:46.538Z,2.63
2019-01-17T01:43:29.043Z,3.80
2019-01-17T01:46:03.319Z,3.07
2019-01-17T01:48:33.689Z,3.00
2019-01-17T01:51:09.926Z,3.10
2019-01-17T01:53:41.007Z,2.43
2019-01-17T01:56:11.559Z,4.00
2019-01-17T01:58:41.981Z,2.37
2019-01-17T02:01:12.347Z,3.10
2019-01-17T02:03:42.726Z,3.70
2019-01-17T02:06:13.353Z,2.70
2019-01-17T02:08:58.737Z,2.00
2019-01-17T02:11:29.159Z,1.63
2019-01-17T02:13:59.524Z,2.57
2019-01-17T02:16:29.896Z,1.80
2019-01-17T02:19:00.522Z,3.53
2019-01-17T02:21:31.660Z,2.60
2019-01-17T02:24:02.034Z,1.67
2019-01-17T02:26:32.677Z,1.00
2019-01-17T02:29:03.043Z,1.77
2019-01-17T02:31:34.197Z,1.93
2019-01-17T02:34:04.600Z,2.47
2019-01-17T02:36:34.984Z,2.50
2019-01-17T02:39:05.358Z,1.80
2019-01-17T02:41:35.721Z,2.53
2019-01-17T02:44:06.158Z,2.60
2019-01-17T02:46:36.530Z,2.20
2019-01-17T02:49:06.961Z,3.70
2019-01-17T02:51:37.327Z,2.27
2019-01-17T02:54:07.647Z,2.30
2019-01-17T02:56:38.279Z,1.93
2019-01-17T02:59:08.602Z,1.87
2019-01-17T03:01:39.178Z,2.00
2019-01-17T03:04:11.646Z,1.37
2019-01-17T03:06:46.114Z,1.77
2019-01-17T03:09:17.468Z,1.90
2019-01-17T03:11:48.610Z,1.97
2019-01-17T03:14:19.797Z,1.53
2019-01-17T03:16:57.415Z,2.63
2019-01-17T03:19:27.861Z,1.90
2019-01-17T03:21:58.231Z,2.70
2019-01-17T03:24:28.671Z,1.00
2019-01-17T03:27:00.075Z,1.63
2019-01-17T03:29:30.471Z,1.70
2019-01-17T03:32:20.207Z,1.43
2019-01-17T03:34:50.626Z,1.10
2019-01-17T03:37:21.007Z,2.23
2019-01-17T03:39:51.373Z,1.70
2019-01-17T03:42:21.810Z,1.40
2019-01-17T03:44:52.134Z,1.93
2019-01-17T03:47:22.506Z,2.87
2019-01-17T03:49:54.965Z,1.20
2019-01-17T03:52:27.360Z,1.13
2019-01-17T03:54:57.742Z,0.90
2019-01-17T03:57:28.122Z,2.27
2019-01-17T03:59:59.621Z,0.87
2019-01-17T04:02:30.011Z,2.90
2019-01-17T04:05:01.376Z,1.40
2019-01-17T04:07:32.010Z,2.47
2019-01-17T04:10:03.147Z,1.13
2019-01-17T04:15:17.332Z,2.17
2019-01-17T04:17:47.721Z,1.40
2019-01-17T04:20:23.526Z,2.63
2019-01-17T04:22:53.841Z,1.57
2019-01-17T04:25:24.211Z,1.73
2019-01-17T04:27:59.746Z,1.47
2019-01-17T04:30:30.118Z,1.00
2019-01-17T04:33:01.256Z,1.43
2019-01-17T04:35:31.690Z,1.30
2019-01-17T04:38:02.094Z,1.03
2019-01-17T04:40:32.467Z,1.60
2019-01-17T04:43:03.131Z,0.90
2019-01-17T04:45:39.639Z,3.27
2019-01-17T04:48:10.102Z,2.17
2019-01-17T04:50:40.546Z,3.57
2019-01-17T04:53:10.931Z,3.80
2019-01-17T04:55:41.295Z,3.73
2019-01-17T04:58:11.767Z,3.20
2019-01-17T05:00:42.236Z,3.90
2019-01-17T05:03:12.615Z,3.57
2019-01-17T05:05:43.040Z,1.33
2019-01-17T05:08:13.598Z,2.60
2019-01-17T05:10:44.733Z,1.53
2019-01-17T05:13:15.146Z,6.03
2019-01-17T05:15:45.527Z,4.70
2019-01-17T05:18:17.935Z,1.53
2019-01-17T05:20:48.582Z,2.63
2019-01-17T05:23:18.958Z,3.03
2019-01-17T05:25:49.468Z,4.47
2019-01-17T05:28:20.614Z,2.60
2019-01-17T05:30:51.755Z,1.77
2019-01-17T05:33:22.949Z,2.57
2019-01-17T05:36:12.701Z,3.87
2019-01-17T05:38:43.159Z,1.97
2019-01-17T05:41:32.630Z,3.27
2019-01-17T05:44:05.110Z,4.17
2019-01-17T05:46:35.486Z,2.97
2019-01-17T05:49:05.865Z,3.13
2019-01-17T05:51:36.299Z,4.07
2019-01-17T05:54:07.883Z,3.33
2019-01-17T05:56:38.197Z,5.87
2019-01-17T05:59:08.566Z,8.70
2019-01-17T06:01:38.944Z,6.43
2019-01-17T06:04:09.322Z,4.83
2019-01-17T06:06:39.686Z,5.40
2019-01-17T06:09:10.065Z,3.63
2019-01-17T06:11:40.437Z,6.30
2019-01-17T06:14:10.983Z,5.13
2019-01-17T06:16:41.439Z,2.80
2019-01-17T06:19:12.525Z,2.10
2019-01-17T06:21:42.958Z,8.53
2019-01-17T06:24:16.394Z,5.10
2019-01-17T06:26:47.532Z,7.70
2019-01-17T06:29:17.987Z,5.93
2019-01-17T06:31:48.414Z,4.47
2019-01-17T06:34:19.559Z,6.23
2019-01-17T06:36:49.942Z,4.17
2019-01-17T06:39:21.377Z,4.20
2019-01-17T06:42:12.132Z,4.87
2019-01-17T06:44:42.565Z,5.80
2019-01-17T06:47:12.945Z,8.02
2019-01-17T06:49:43.400Z,7.80
2019-01-17T06:52:15.484Z,4.40
2019-01-17T06:54:46.693Z,8.10
2019-01-17T06:57:17.076Z,3.53
2019-01-17T06:59:47.386Z,4.77
2019-01-17T07:02:17.818Z,4.43
2019-01-17T07:04:48.187Z,4.50
2019-01-17T07:07:18.562Z,4.53
2019-01-17T07:09:49.004Z,5.03
2019-01-17T07:12:19.569Z,4.10
2019-01-17T07:14:51.077Z,4.97
2019-01-17T07:17:21.509Z,3.93
2019-01-17T07:19:51.886Z,5.00
2019-01-17T07:22:24.304Z,3.80
2019-01-17T07:24:54.735Z,5.33
2019-01-17T07:27:25.111Z,6.50
2019-01-17T07:29:55.491Z,7.73
2019-01-17T07:32:25.867Z,8.40
2019-01-17T07:34:56.330Z,6.40
2019-01-17T07:37:27.469Z,4.77
2019-01-17T07:39:58.040Z,4.67
2019-01-17T07:42:29.425Z,2.00
2019-01-17T07:44:59.739Z,4.43
2019-01-17T07:47:30.049Z,4.07
2019-01-17T07:50:07.656Z,4.17
2019-01-17T07:52:39.064Z,2.53
2019-01-17T07:55:09.426Z,5.13
2019-01-17T07:57:45.937Z,3.47
2019-01-17T08:03:01.247Z,4.33
2019-01-17T08:05:32.456Z,3.63
2019-01-17T08:08:02.831Z,8.03
2019-01-17T08:10:33.273Z,4.63
2019-01-17T08:13:03.597Z,3.77
2019-01-17T08:15:34.221Z,4.10
2019-01-17T08:18:04.617Z,7.67
2019-01-17T08:20:35.755Z,2.67
2019-01-17T08:23:06.154Z,2.53
2019-01-17T08:25:36.724Z,5.87
2019-01-17T08:28:07.868Z,2.37
2019-01-17T08:30:39.282Z,4.03
2019-01-17T08:33:09.658Z,5.17
2019-01-17T08:35:40.096Z,3.90
2019-01-17T08:38:10.712Z,3.03
2019-01-17T08:40:41.273Z,3.30
2019-01-17T08:43:11.896Z,5.93
2019-01-17T08:45:42.206Z,5.87
2019-01-17T08:48:12.770Z,5.33
2019-01-17T08:50:43.092Z,2.77
2019-01-17T08:53:18.765Z,4.67
2019-01-17T08:55:49.219Z,3.30
2019-01-17T08:58:19.585Z,3.13
2019-01-17T09:00:49.960Z,3.57
2019-01-17T09:03:20.590Z,4.33
2019-01-17T09:05:51.144Z,3.90
2019-01-17T09:08:22.467Z,2.70
2019-01-17T09:10:52.829Z,2.33
2019-01-17T09:13:23.396Z,2.53
2019-01-17T09:15:53.711Z,3.27
2019-01-17T09:18:24.288Z,3.97
2019-01-17T09:20:54.668Z,5.40
2019-01-17T09:23:29.144Z,3.77
2019-01-17T09:26:00.236Z,3.57
2019-01-17T09:28:30.852Z,4.43
2019-01-17T09:31:01.220Z,4.20
2019-01-17T09:33:31.586Z,4.57
2019-01-17T09:36:02.819Z,3.67
2019-01-17T09:38:33.966Z,5.27
2019-01-17T09:41:04.281Z,4.60
2019-01-17T09:43:34.596Z,2.00
2019-01-17T09:46:05.939Z,3.87
2019-01-17T09:48:36.382Z,3.10
2019-01-17T09:51:06.765Z,4.93
2019-01-17T09:53:43.300Z,1.63
2019-01-17T09:56:14.915Z,1.80
2019-01-17T09:58:44.957Z,1.87
2019-01-17T10:01:16.349Z,2.53
2019-01-17T10:03:46.900Z,3.20
2019-01-17T10:06:22.654Z,1.83
2019-01-17T10:08:59.398Z,4.00
2019-01-17T10:11:29.765Z,1.80
2019-01-17T10:14:00.140Z,5.43
2019-01-17T10:16:30.704Z,8.80
2019-01-17T10:22:08.947Z,3.63
2019-01-17T10:25:04.912Z,3.63
2019-01-17T10:27:58.095Z,3.83
2019-01-17T10:30:28.533Z,3.20
2019-01-17T10:33:10.219Z,2.40
2019-01-17T10:35:58.244Z,4.13
2019-01-17T10:38:51.989Z,3.53
2019-01-17T10:41:57.808Z,2.13
2019-01-17T10:44:33.479Z,4.07
2019-01-17T10:47:26.987Z,5.13
2019-01-17T10:50:28.428Z,3.00
2019-01-17T10:56:48.657Z,3.00
2019-01-17T10:59:30.682Z,3.80
2019-01-17T11:02:06.189Z,3.87
2019-01-17T11:04:42.663Z,6.33
2019-01-17T11:07:43.655Z,3.70
2019-01-17T11:10:20.736Z,4.40
2019-01-17T11:12:56.048Z,2.23
2019-01-17T11:15:43.681Z,3.27
2019-01-17T11:18:37.988Z,3.03
2019-01-17T11:21:31.667Z,2.93
2019-01-17T11:24:28.300Z,5.23
2019-01-17T11:27:40.199Z,2.93
2019-01-17T11:30:18.014Z,3.37
2019-01-17T11:32:58.648Z,3.60
2019-01-17T11:35:36.696Z,2.63
2019-01-17T11:38:24.590Z,4.53
2019-01-17T11:41:00.248Z,3.57
2019-01-17T11:43:59.875Z,3.53
2019-01-17T11:46:53.509Z,5.03
2019-01-17T11:49:58.442Z,2.93
2019-01-17T11:52:48.639Z,4.73
2019-01-17T11:55:32.689Z,3.70
2019-01-17T11:58:29.680Z,4.17
2019-01-17T12:04:31.326Z,2.47
2019-01-17T12:07:07.903Z,1.53
2019-01-17T12:09:39.055Z,3.20
2019-01-17T12:12:09.367Z,2.80
2019-01-17T12:14:39.927Z,2.77
2019-01-17T12:17:10.554Z,2.90
2019-01-17T12:19:40.880Z,2.90
2019-01-17T12:22:11.445Z,3.50
2019-01-17T12:24:41.883Z,3.13
2019-01-17T12:27:12.477Z,1.90
2019-01-17T12:29:42.886Z,3.30
2019-01-17T12:32:13.451Z,2.30
2019-01-17T12:35:04.093Z,2.43
2019-01-17T12:37:34.405Z,6.67
2019-01-17T12:40:04.965Z,3.10
2019-01-17T12:42:35.299Z,4.13
2019-01-17T12:45:05.877Z,2.23
2019-01-17T12:47:37.263Z,3.13
2019-01-17T12:50:10.632Z,2.67
2019-01-17T12:52:41.019Z,1.80
2019-01-17T12:55:11.586Z,5.30
2019-01-17T12:57:41.926Z,5.90
2019-01-17T13:00:12.297Z,4.63
2019-01-17T13:02:42.614Z,6.20
2019-01-17T13:05:13.051Z,4.20
2019-01-17T13:07:43.628Z,5.07
2019-01-17T13:10:13.967Z,8.87
2019-01-17T13:12:44.346Z,4.37
2019-01-17T13:15:16.713Z,4.37
2019-01-17T13:17:47.115Z,5.83
2019-01-17T13:20:17.493Z,1.10
2019-01-17T13:22:47.812Z,3.93
2019-01-17T13:25:19.177Z,2.00
2019-01-17T13:27:49.489Z,3.47
2019-01-17T13:30:22.350Z,1.50
2019-01-17T13:32:54.821Z,2.83
2019-01-17T13:35:25.202Z,3.13
2019-01-17T13:37:55.526Z,2.40
2019-01-17T13:40:26.161Z,3.83
2019-01-17T13:42:56.710Z,1.77
2019-01-17T13:45:28.125Z,2.77
2019-01-17T13:47:58.534Z,0.83
2019-01-17T13:50:47.248Z,2.97
2019-01-17T13:53:17.624Z,2.13
2019-01-17T13:55:55.334Z,3.83
2019-01-17T13:58:25.720Z,1.93
2019-01-17T14:00:56.100Z,1.83
2019-01-17T14:03:26.433Z,2.17
2019-01-17T14:05:57.752Z,1.40
2019-01-17T14:08:28.127Z,1.73
2019-01-17T14:10:58.748Z,3.30
2019-01-17T14:13:29.114Z,1.57
2019-01-17T14:15:59.511Z,1.20
2019-01-17T14:18:29.877Z,1.40
2019-01-17T14:21:07.875Z,1.73
2019-01-17T14:23:38.186Z,3.30
2019-01-17T14:26:08.520Z,3.73
2019-01-17T14:28:39.969Z,3.13
2019-01-17T14:31:10.346Z,2.00
2019-01-17T14:33:40.898Z,1.70
2019-01-17T14:36:11.522Z,2.13
2019-01-17T14:38:41.905Z,4.50
2019-01-17T14:41:12.230Z,1.97
2019-01-17T14:43:42.810Z,3.13
2019-01-17T14:46:13.913Z,2.17
2019-01-17T14:48:44.223Z,2.93
2019-01-17T14:51:21.927Z,5.27
2019-01-17T14:53:52.238Z,3.17
2019-01-17T14:56:22.611Z,1.47
2019-01-17T14:58:53.008Z,3.87
2019-01-17T15:01:25.421Z,2.33
2019-01-17T15:03:56.499Z,2.47
2019-01-17T15:06:27.081Z,2.60
2019-01-17T15:08:57.404Z,3.33
2019-01-17T15:11:27.959Z,3.70
2019-01-17T15:13:58.571Z,5.03
2019-01-17T15:16:28.943Z,4.70
2019-01-17T15:18:59.275Z,7.00
2019-01-17T15:21:30.673Z,4.83
2019-01-17T15:24:01.322Z,3.63
2019-01-17T15:26:31.876Z,5.23
2019-01-17T15:29:02.595Z,3.90
2019-01-17T15:31:32.913Z,4.20
2019-01-17T15:34:03.996Z,3.33
2019-01-17T15:36:55.537Z,4.57
2019-01-17T15:39:25.941Z,4.50
2019-01-17T15:42:00.601Z,3.93
2019-01-17T15:44:30.918Z,5.13
2019-01-17T15:47:01.302Z,4.10
2019-01-17T15:49:31.698Z,2.60
2019-01-17T15:52:02.787Z,3.60
2019-01-17T15:54:36.203Z,1.37
2019-01-17T15:57:06.763Z,1.80
2019-01-17T15:59:37.857Z,2.73
2019-01-17T16:02:11.362Z,1.57
2019-01-17T16:04:45.829Z,1.97
2019-01-17T16:10:03.524Z,3.30
2019-01-17T16:12:32.748Z,2.80
2019-01-17T16:15:03.089Z,3.33
2019-01-17T16:17:33.660Z,2.57
2019-01-17T16:20:04.026Z,2.40
2019-01-17T16:22:35.394Z,1.93
2019-01-17T16:25:05.719Z,2.90
2019-01-17T16:27:41.871Z,2.67
2019-01-17T16:30:08.704Z,2.97
2019-01-17T16:32:45.547Z,2.80
2019-01-17T16:35:15.919Z,2.67
2019-01-17T16:37:46.280Z,4.50
2019-01-17T16:40:16.618Z,3.03
2019-01-17T16:42:47.062Z,2.23
2019-01-17T16:45:20.197Z,2.73
2019-01-17T16:48:05.639Z,2.93
2019-01-17T16:50:35.971Z,3.27
2019-01-17T16:53:09.418Z,2.60
2019-01-17T16:55:40.054Z,5.50
2019-01-17T16:58:10.425Z,2.07
2019-01-17T17:00:40.882Z,2.73
2019-01-17T17:03:11.290Z,4.03
2019-01-17T17:05:41.677Z,2.53
2019-01-17T17:08:12.921Z,2.07
2019-01-17T17:10:44.067Z,4.53
2019-01-17T17:13:15.359Z,4.07
2019-01-17T17:15:49.028Z,3.27
2019-01-17T17:18:19.599Z,3.70
2019-01-17T17:20:50.007Z,2.43
2019-01-17T17:23:20.413Z,4.00
2019-01-17T17:26:00.852Z,4.17
2019-01-17T17:28:31.939Z,6.07
2019-01-17T17:31:05.538Z,5.60
2019-01-17T17:33:35.859Z,3.77
2019-01-17T17:36:06.428Z,5.70
2019-01-17T17:38:37.861Z,4.20
2019-01-17T17:41:10.371Z,7.00
2019-01-17T17:43:40.753Z,2.60
2019-01-17T17:46:16.312Z,4.37
2019-01-17T17:48:48.738Z,2.93
2019-01-17T17:51:19.321Z,2.80
2019-01-17T17:53:49.758Z,4.73
2019-01-17T17:56:20.146Z,5.13
2019-01-17T17:58:50.713Z,5.37
2019-01-17T18:01:21.186Z,7.80
2019-01-17T18:03:51.599Z,5.33
2019-01-17T18:06:22.734Z,5.63
2019-01-17T18:08:53.116Z,5.13
2019-01-17T18:11:25.795Z,7.30
2019-01-17T18:13:57.133Z,4.67
2019-01-17T18:16:27.756Z,4.23
2019-01-17T18:19:00.103Z,5.53
2019-01-17T18:21:31.496Z,6.10
2019-01-17T18:24:02.894Z,7.67
2019-01-17T18:26:33.519Z,5.37
2019-01-17T18:29:03.899Z,5.00
2019-01-17T18:31:35.294Z,4.13
2019-01-17T18:34:11.273Z,6.57
2019-01-17T18:36:41.707Z,6.53
2019-01-17T18:39:12.859Z,6.73
2019-01-17T18:41:44.198Z,6.53
2019-01-17T18:44:14.633Z,6.90
2019-01-17T18:46:45.010Z,6.43
2019-01-17T18:49:15.395Z,4.90
2019-01-17T18:51:45.790Z,6.87
2019-01-17T18:54:16.167Z,6.10
2019-01-17T18:56:49.616Z,6.17
2019-01-17T18:59:20.016Z,7.03
2019-01-17T19:01:50.631Z,5.63
2019-01-17T19:04:23.968Z,6.40
2019-01-17T19:06:54.354Z,6.30
2019-01-17T19:09:24.920Z,8.70
2019-01-17T19:11:55.240Z,8.60
2019-01-17T19:14:25.842Z,5.70
2019-01-17T19:17:02.299Z,7.83
2019-01-17T19:19:32.751Z,7.03
2019-01-17T19:22:03.144Z,5.27
2019-01-17T19:24:34.400Z,8.00
2019-01-17T19:27:04.838Z,8.03
2019-01-17T19:29:35.211Z,8.83
2019-01-17T19:32:05.578Z,6.57
2019-01-17T19:34:35.953Z,6.63
2019-01-17T19:37:06.322Z,8.13
2019-01-17T19:39:36.732Z,6.47
2019-01-17T19:42:07.862Z,9.30
2019-01-17T19:44:38.183Z,8.27
2019-01-17T19:47:08.815Z,6.13
2019-01-17T19:49:39.207Z,5.47
2019-01-17T19:52:10.612Z,6.93
2019-01-17T19:54:41.763Z,7.40
2019-01-17T19:57:12.189Z,8.07
2019-01-17T19:59:42.528Z,10.90
2019-01-17T20:02:13.108Z,8.00
2019-01-17T20:04:43.548Z,7.67
2019-01-17T20:07:14.122Z,8.60
2019-01-17T20:09:44.560Z,9.43
2019-01-17T20:12:19.034Z,9.50
2019-01-17T20:14:49.466Z,8.03
2019-01-17T20:20:08.485Z,6.77
2019-01-17T20:22:39.059Z,7.13
2019-01-17T20:25:09.438Z,11.10
2019-01-17T20:27:39.806Z,11.33
2019-01-17T20:30:15.878Z,10.93
2019-01-17T20:32:46.247Z,9.13
2019-01-17T20:35:16.948Z,11.87
2019-01-17T20:37:48.081Z,11.57
2019-01-17T20:40:21.562Z,9.23
2019-01-17T20:42:52.123Z,11.57
2019-01-17T20:45:23.270Z,12.90
2019-01-17T20:47:54.465Z,9.77
2019-01-17T20:50:32.325Z,13.23
2019-01-17T20:53:03.439Z,10.80
2019-01-17T20:55:33.811Z,9.97
2019-01-17T20:58:04.196Z,9.97
2019-01-17T21:00:40.831Z,5.97
2019-01-17T21:03:13.240Z,6.87
2019-01-17T21:05:43.660Z,10.00
2019-01-17T21:08:13.975Z,7.27
2019-01-17T21:10:44.529Z,7.90
2019-01-17T21:13:14.948Z,9.00
2019-01-17T21:15:45.324Z,8.73
2019-01-17T21:18:15.687Z,10.53
2019-01-17T21:20:46.133Z,10.17
2019-01-17T21:23:16.697Z,10.37
2019-01-17T21:25:47.325Z,9.53
2019-01-17T21:28:17.696Z,8.30
2019-01-17T21:30:48.081Z,10.60
2019-01-17T21:33:18.527Z,9.90
2019-01-17T21:35:48.911Z,7.13
2019-01-17T21:38:19.284Z,6.13
2019-01-17T21:40:51.779Z,11.83
2019-01-17T21:43:25.214Z,8.70
2019-01-17T21:45:56.420Z,10.00
2019-01-17T21:48:26.794Z,7.37
2019-01-17T21:50:57.926Z,8.80
2019-01-17T21:53:28.286Z,11.77
2019-01-17T21:55:58.659Z,9.90
2019-01-17T21:58:29.027Z,14.40
2019-01-17T22:01:01.496Z,15.03
2019-01-17T22:03:32.632Z,9.30
2019-01-17T22:06:03.002Z,7.73
2019-01-17T22:08:35.644Z,11.10
2019-01-17T22:11:06.794Z,9.93
2019-01-17T22:13:37.352Z,8.97
2019-01-17T22:16:11.870Z,8.30
2019-01-17T22:18:42.242Z,13.87
2019-01-17T22:21:12.666Z,10.13
2019-01-17T22:23:43.015Z,7.60
2019-01-17T22:26:20.892Z,8.37
2019-01-17T22:28:44.710Z,8.47
2019-01-17T22:31:15.892Z,11.67
2019-01-17T22:34:07.671Z,9.63
2019-01-17T22:36:38.049Z,7.53
2019-01-17T22:39:09.442Z,9.33
2019-01-17T22:41:39.881Z,8.80
2019-01-17T22:44:11.027Z,10.67
2019-01-17T22:46:41.664Z,11.70
2019-01-17T22:49:12.027Z,8.73
2019-01-17T22:52:03.594Z,9.80
2019-01-17T22:54:33.972Z,12.93
2019-01-17T22:57:24.787Z,12.67
2019-01-17T22:59:55.109Z,14.63
2019-01-17T23:02:27.540Z,12.97
2019-01-17T23:04:57.977Z,14.33
2019-01-17T23:07:28.353Z,13.40
2019-01-17T23:09:58.726Z,10.27
2019-01-17T23:12:29.146Z,12.93
2019-01-17T23:14:59.524Z,10.27
2019-01-17T23:17:29.942Z,9.90
2019-01-17T23:20:00.310Z,10.97
2019-01-17T23:22:30.678Z,10.87
2019-01-17T23:25:01.286Z,7.17
2019-01-17T23:27:32.602Z,17.57
2019-01-17T23:30:02.977Z,39.77
2019-01-17T23:32:33.552Z,18.03
2019-01-17T23:35:03.928Z,15.63
2019-01-17T23:37:34.370Z,9.07
2019-01-17T23:40:04.727Z,16.80
2019-01-17T23:42:37.148Z,18.30
2019-01-17T23:45:11.011Z,18.23
2019-01-17T23:47:43.365Z,9.23
2019-01-17T23:50:13.759Z,8.10
2019-01-17T23:52:44.179Z,10.60
2019-01-17T23:55:14.741Z,9.87
2019-01-17T23:57:45.121Z,9.37
